sensor_id;sensor_type;location;lat;lon;timestamp;P1;durP1;ratioP1;P2;durP2;ratioP2
1078;SDS011;528;47.872;11.478;2022-08-19T01:10:39;3.77;;;3.47;;
1078;SDS011;528;47.872;11.478;2022-08-19T01:13:10;4.30;;;4.00;;
1078;SDS011;528;47.872;11.478;2022-08-19T01:15:46;5.27;;;3.37;;
1078;SDS011;528;47.872;11.478;2022-08-19T01:23:45;3.80;;;3.50;;
1078;SDS011;528;47.872;11.478;2022-08-19T01:26:21;3.70;;;3.40;;
1078;SDS011;528;47.872;11.478;2022-08-19T01:31:28;4.20;;;3.80;;
1078;SDS011;528;47.872;11.478;2022-08-19T01:34:02;3.67;;;3.37;;
1078;SDS011;528;47.872;11.478;2022-08-19T01:50:38;3.60;;;3.30;;
1078;SDS011;528;47.872;11.478;2022-08-19T01:53:15;3.50;;;3.20;;
1078;SDS011;528;47.872;11.478;2022-08-19T01:59:44;4.03;;;3.73;;
1078;SDS011;528;47.872;11.478;2022-08-19T02:02:34;3.80;;;3.50;;
1078;SDS011;528;47.872;11.478;2022-08-19T02:05:18;4.63;;;3.80;;
1078;SDS011;528;47.872;11.478;2022-08-19T02:10:57;4.43;;;4.03;;
1078;SDS011;528;47.872;11.478;2022-08-19T02:13:48;4.13;;;3.83;;
1078;SDS011;528;47.872;11.478;2022-08-19T05:31:31;4.47;;;3.87;;
1078;SDS011;528;47.872;11.478;2022-08-19T05:34:05;4.37;;;4.07;;
1078;SDS011;528;47.872;11.478;2022-08-19T05:36:41;4.03;;;3.73;;
1078;SDS011;528;47.872;11.478;2022-08-19T05:39:14;4.13;;;3.83;;
1078;SDS011;528;47.872;11.478;2022-08-19T05:41:49;3.80;;;3.50;;
1078;SDS011;528;47.872;11.478;2022-08-19T05:44:33;3.90;;;3.60;;
1078;SDS011;528;47.872;11.478;2022-08-19T05:47:18;3.80;;;3.50;;
1078;SDS011;528;47.872;11.478;2022-08-19T05:49:52;3.87;;;3.57;;
1078;SDS011;528;47.872;11.478;2022-08-19T05:52:29;3.90;;;3.70;;
1078;SDS011;528;47.872;11.478;2022-08-19T05:55:07;4.60;;;4.30;;
1078;SDS011;528;47.872;11.478;2022-08-19T05:57:40;4.60;;;4.20;;
1078;SDS011;528;47.872;11.478;2022-08-19T06:00:12;4.20;;;3.70;;
1078;SDS011;528;47.872;11.478;2022-08-19T06:02:55;5.90;;;4.10;;
1078;SDS011;528;47.872;11.478;2022-08-19T06:05:30;4.60;;;4.20;;
1078;SDS011;528;47.872;11.478;2022-08-19T06:07:59;3.80;;;3.50;;
1078;SDS011;528;47.872;11.478;2022-08-19T06:10:32;4.27;;;3.70;;
1078;SDS011;528;47.872;11.478;2022-08-19T06:13:07;3.90;;;3.60;;
1078;SDS011;528;47.872;11.478;2022-08-19T06:15:40;4.67;;;4.27;;
1078;SDS011;528;47.872;11.478;2022-08-19T06:18:33;4.23;;;3.90;;
1078;SDS011;528;47.872;11.478;2022-08-19T06:21:11;4.60;;;4.20;;
1078;SDS011;528;47.872;11.478;2022-08-19T06:24:00;4.90;;;4.33;;
1078;SDS011;528;47.872;11.478;2022-08-19T06:26:49;5.30;;;4.80;;
1078;SDS011;528;47.872;11.478;2022-08-19T06:29:36;4.90;;;4.50;;
1078;SDS011;528;47.872;11.478;2022-08-19T06:32:30;6.90;;;5.20;;
1078;SDS011;528;47.872;11.478;2022-08-19T06:38:43;6.43;;;5.10;;
1078;SDS011;528;47.872;11.478;2022-08-19T06:41:33;5.17;;;4.80;;
1078;SDS011;528;47.872;11.478;2022-08-19T06:44:16;5.70;;;5.30;;
1078;SDS011;528;47.872;11.478;2022-08-19T08:15:58;13.60;;;12.07;;
1078;SDS011;528;47.872;11.478;2022-08-19T08:18:25;14.60;;;12.00;;
1078;SDS011;528;47.872;11.478;2022-08-19T08:20:52;13.33;;;12.07;;
1078;SDS011;528;47.872;11.478;2022-08-19T08:23:21;14.23;;;12.13;;
1078;SDS011;528;47.872;11.478;2022-08-19T08:25:52;13.37;;;12.03;;
1078;SDS011;528;47.872;11.478;2022-08-19T08:28:21;15.50;;;13.87;;
1078;SDS011;528;47.872;11.478;2022-08-19T08:30:50;14.53;;;13.03;;
1078;SDS011;528;47.872;11.478;2022-08-19T08:33:34;14.90;;;13.30;;
1078;SDS011;528;47.872;11.478;2022-08-19T08:36:12;17.10;;;13.40;;
1078;SDS011;528;47.872;11.478;2022-08-19T08:38:41;16.80;;;14.00;;
1078;SDS011;528;47.872;11.478;2022-08-19T08:41:25;13.67;;;12.27;;
1078;SDS011;528;47.872;11.478;2022-08-19T08:43:58;14.60;;;13.20;;
1078;SDS011;528;47.872;11.478;2022-08-19T08:46:35;14.00;;;12.50;;
1078;SDS011;528;47.872;11.478;2022-08-19T08:49:10;14.27;;;12.57;;
1078;SDS011;528;47.872;11.478;2022-08-19T08:51:46;15.10;;;13.20;;
1078;SDS011;528;47.872;11.478;2022-08-19T08:54:35;14.30;;;12.07;;
1078;SDS011;528;47.872;11.478;2022-08-19T09:18:44;12.73;;;11.43;;
1078;SDS011;528;47.872;11.478;2022-08-19T15:50:43;3.27;;;2.97;;
1078;SDS011;528;47.872;11.478;2022-08-19T17:13:05;1.40;;;1.30;;
1078;SDS011;528;47.872;11.478;2022-08-19T17:15:47;0.90;;;0.90;;
1078;SDS011;528;47.872;11.478;2022-08-19T17:18:41;1.27;;;1.10;;
1078;SDS011;528;47.872;11.478;2022-08-19T17:21:43;1.30;;;1.30;;
1078;SDS011;528;47.872;11.478;2022-08-19T17:24:24;1.50;;;1.40;;
1078;SDS011;528;47.872;11.478;2022-08-19T17:27:06;1.00;;;1.00;;
1078;SDS011;528;47.872;11.478;2022-08-19T17:29:40;1.23;;;1.13;;
1078;SDS011;528;47.872;11.478;2022-08-19T17:32:14;1.40;;;1.30;;
1078;SDS011;528;47.872;11.478;2022-08-19T17:34:45;1.30;;;1.20;;
1078;SDS011;528;47.872;11.478;2022-08-19T17:37:12;1.40;;;1.30;;
1078;SDS011;528;47.872;11.478;2022-08-19T17:39:40;1.50;;;1.40;;
1078;SDS011;528;47.872;11.478;2022-08-19T17:42:07;1.10;;;1.10;;
1078;SDS011;528;47.872;11.478;2022-08-19T17:44:35;1.43;;;1.33;;
1078;SDS011;528;47.872;11.478;2022-08-19T17:49:50;1.00;;;1.00;;
1078;SDS011;528;47.872;11.478;2022-08-19T17:52:21;2.40;;;1.37;;
1078;SDS011;528;47.872;11.478;2022-08-19T17:55:01;1.50;;;1.40;;
1078;SDS011;528;47.872;11.478;2022-08-19T17:57:35;1.30;;;1.30;;
1078;SDS011;528;47.872;11.478;2022-08-19T18:10:36;1.67;;;1.30;;
1078;SDS011;528;47.872;11.478;2022-08-19T18:13:30;1.30;;;1.30;;
1078;SDS011;528;47.872;11.478;2022-08-19T18:17:22;1.47;;;1.37;;
1078;SDS011;528;47.872;11.478;2022-08-19T18:20:17;1.40;;;1.30;;
1078;SDS011;528;47.872;11.478;2022-08-19T21:47:36;12.40;;;11.10;;
1078;SDS011;528;47.872;11.478;2022-08-19T21:50:09;12.77;;;11.63;;
1078;SDS011;528;47.872;11.478;2022-08-19T21:52:39;12.50;;;11.40;;
1078;SDS011;528;47.872;11.478;2022-08-19T21:55:12;12.33;;;11.23;;
1078;SDS011;528;47.872;11.478;2022-08-19T21:57:41;12.60;;;11.40;;
1078;SDS011;528;47.872;11.478;2022-08-19T22:00:13;13.30;;;12.10;;
1078;SDS011;528;47.872;11.478;2022-08-19T22:02:45;13.43;;;12.20;;
1078;SDS011;528;47.872;11.478;2022-08-19T22:05:28;13.57;;;12.17;;
1078;SDS011;528;47.872;11.478;2022-08-19T22:07:58;14.17;;;12.80;;
1078;SDS011;528;47.872;11.478;2022-08-19T22:10:32;12.77;;;11.67;;
1078;SDS011;528;47.872;11.478;2022-08-19T22:13:00;13.83;;;12.63;;
1078;SDS011;528;47.872;11.478;2022-08-19T22:15:37;12.90;;;11.70;;
1078;SDS011;528;47.872;11.478;2022-08-19T22:21:35;13.83;;;12.53;;
1078;SDS011;528;47.872;11.478;2022-08-19T22:24:19;13.33;;;12.13;;
1078;SDS011;528;47.872;11.478;2022-08-19T22:27:00;12.83;;;11.73;;
1078;SDS011;528;47.872;11.478;2022-08-19T22:29:47;12.00;;;11.00;;
1078;SDS011;528;47.872;11.478;2022-08-19T22:32:26;11.67;;;10.70;;
1078;SDS011;528;47.872;11.478;2022-08-19T22:35:45;11.67;;;10.67;;
1078;SDS011;528;47.872;11.478;2022-08-19T22:38:52;11.90;;;10.90;;
1078;SDS011;528;47.872;11.478;2022-08-19T22:41:37;12.37;;;11.27;;
1078;SDS011;528;47.872;11.478;2022-08-19T22:44:09;11.77;;;10.70;;
1078;SDS011;528;47.872;11.478;2022-08-19T22:46:52;12.30;;;11.20;;
1078;SDS011;528;47.872;11.478;2022-08-19T22:49:38;12.50;;;11.50;;
1078;SDS011;528;47.872;11.478;2022-08-19T22:52:07;11.97;;;10.87;;
1078;SDS011;528;47.872;11.478;2022-08-19T22:54:41;12.77;;;11.57;;
1078;SDS011;528;47.872;11.478;2022-08-19T22:57:10;12.80;;;11.70;;
1078;SDS011;528;47.872;11.478;2022-08-19T22:59:42;11.70;;;10.70;;
1078;SDS011;528;47.872;11.478;2022-08-19T23:02:16;12.20;;;10.87;;
1078;SDS011;528;47.872;11.478;2022-08-19T23:04:58;11.03;;;10.13;;
1078;SDS011;528;47.872;11.478;2022-08-19T23:07:29;11.40;;;10.43;;
1078;SDS011;528;47.872;11.478;2022-08-19T23:09:59;12.10;;;11.00;;
1078;SDS011;528;47.872;11.478;2022-08-19T23:12:28;10.83;;;9.93;;
1078;SDS011;528;47.872;11.478;2022-08-19T23:15:00;11.63;;;10.60;;
1078;SDS011;528;47.872;11.478;2022-08-19T23:17:27;11.40;;;10.50;;
1078;SDS011;528;47.872;11.478;2022-08-19T23:20:03;11.67;;;10.57;;
1078;SDS011;528;47.872;11.478;2022-08-19T23:23:04;11.83;;;10.83;;
1078;SDS011;528;47.872;11.478;2022-08-19T23:25:39;10.50;;;9.60;;
1078;SDS011;528;47.872;11.478;2022-08-19T23:28:10;10.80;;;9.90;;
1078;SDS011;528;47.872;11.478;2022-08-19T23:30:54;11.00;;;10.00;;
1078;SDS011;528;47.872;11.478;2022-08-19T23:33:34;9.80;;;9.00;;
1078;SDS011;528;47.872;11.478;2022-08-19T23:36:12;10.80;;;9.80;;
1078;SDS011;528;47.872;11.478;2022-08-19T23:38:57;9.40;;;8.60;;
1078;SDS011;528;47.872;11.478;2022-08-19T23:41:27;10.20;;;9.30;;
1078;SDS011;528;47.872;11.478;2022-08-19T23:43:57;10.10;;;9.30;;
1078;SDS011;528;47.872;11.478;2022-08-19T23:46:24;9.90;;;9.10;;
1078;SDS011;528;47.872;11.478;2022-08-19T23:48:52;9.60;;;8.83;;
1078;SDS011;528;47.872;11.478;2022-08-19T23:51:21;9.80;;;9.00;;
1078;SDS011;528;47.872;11.478;2022-08-19T23:53:51;8.77;;;8.07;;
1078;SDS011;528;47.872;11.478;2022-08-19T23:56:23;9.03;;;8.23;;
1078;SDS011;528;47.872;11.478;2022-08-19T23:59:01;8.67;;;7.97;;
